Погода Бабировона неделю

Могилёвская область, Белоруссия

17 - 23 июля
  • 17июля
    Сегодня
    +19°
    +31°
    Ясно и безоблачно
    ВремяПогодаТемператураВлажностьДавлениеВетер, м/сВероятность осадков
    00:00Облачно с прояснениями+23°C65 %749 мм2.5 м/с2 %
    03:00Ясно и безоблачно+22°C70 %749 мм3.5 м/с2 %
    06:00Облачно с прояснениями+21°C72 %749 мм4.5 м/с2 %
    09:00Облачно с прояснениями+24°C83 %750 мм3.5 м/с8 %
    12:00Небольшая облачность+28°C64 %750 мм3.2 м/с5 %
    15:00Ясно и безоблачно+31°C57 %750 мм3.6 м/с5 %
    18:00Практически безоблачно+30°C54 %750 мм2.8 м/с4 %
    21:00Небольшая облачность+27°C73 %751 мм1.5 м/с10 %
  • 18июля
    Четверг
    +16°
    +27°
    Облачно с прояснениями
    ВремяПогодаТемператураВлажностьДавлениеВетер, м/сВероятность осадков
    00:00Облачно с прояснениями+23°C83 %751 мм2.0 м/с2 %
    03:00Ясно и безоблачно+21°C81 %751 мм2.0 м/с2 %
    06:00Небольшая облачность+20°C86 %751 мм1.8 м/с3 %
    09:00Пасмурно, небольшой дождь+22°C76 %752 мм2.7 м/с55 %
    12:00Облачно с прояснениями, небольшой дождь+24°C68 %751 мм2.6 м/с73 %
    15:00Облачно с прояснениями+25°C60 %751 мм3.0 м/с34 %
    18:00Облачно с прояснениями+27°C52 %750 мм4.4 м/с39 %
    21:00Практически безоблачно+24°C66 %751 мм2.2 м/с25 %
  • 19июля
    Пятница
    +14°
    +26°
    Ясно и безоблачно
    ВремяПогодаТемператураВлажностьДавлениеВетер, м/сВероятность осадков
    00:00Ясно и безоблачно+19°C75 %751 мм2.5 м/с2 %
    03:00Ясно и безоблачно+18°C75 %751 мм3.3 м/с2 %
    06:00Ясно и безоблачно+16°C79 %752 мм3.7 м/с2 %
    09:00Практически безоблачно+20°C67 %752 мм3.6 м/с2 %
    12:00Практически безоблачно+24°C43 %752 мм3.7 м/с2 %
    15:00Ясно и безоблачно+25°C42 %751 мм4.5 м/с2 %
    18:00Ясно и безоблачно+25°C40 %750 мм4.7 м/с2 %
    21:00Ясно и безоблачно+23°C55 %749 мм2.4 м/с2 %
  • 20июля
    Суббота
    +13°
    +25°
    Облачно с прояснениями
    ВремяПогодаТемператураВлажностьДавлениеВетер, м/сВероятность осадков
    00:00Ясно и безоблачно+19°C67 %749 мм2.6 м/с2 %
    03:00Ясно и безоблачно+16°C75 %749 мм2.5 м/с2 %
    06:00Ясно и безоблачно+14°C77 %748 мм2.7 м/с2 %
    09:00Ясно и безоблачно+20°C61 %748 мм2.5 м/с2 %
    12:00Облачно с прояснениями+24°C44 %748 мм4.0 м/с33 %
    15:00Облачно с прояснениями+24°C37 %747 мм3.2 м/с24 %
    18:00Практически безоблачно+24°C34 %746 мм2.7 м/с13 %
    21:00Ясно и безоблачно+22°C46 %746 мм2.6 м/с2 %
  • 21июля
    Воскресенье
    +14°
    +26°
    Практически безоблачно
    ВремяПогодаТемператураВлажностьДавлениеВетер, м/сВероятность осадков
    00:00Ясно и безоблачно+18°C58 %746 мм2.0 м/с2 %
    03:00Ясно и безоблачно+15°C75 %745 мм1.9 м/с2 %
    06:00Ясно и безоблачно+14°C80 %745 мм1.1 м/с2 %
    09:00Ясно и безоблачно+20°C57 %745 мм1.3 м/с4 %
    12:00Практически безоблачно+24°C41 %745 мм1.3 м/с38 %
    15:00Практически безоблачно+25°C38 %745 мм2.0 м/с37 %
    18:00Практически безоблачно+24°C37 %744 мм2.0 м/с34 %
    21:00Ясно и безоблачно+22°C54 %744 мм2.0 м/с9 %
Мы используем cookies
Соглашаюсь